createdAt,value
2018-03-28T00:00:10.462Z,1.85
2018-03-28T00:02:39.556Z,1.86
2018-03-28T00:05:07.919Z,1.85
2018-03-28T00:07:36.650Z,1.88
2018-03-28T00:10:05.776Z,2.00
2018-03-28T00:12:34.876Z,1.95
2018-03-28T00:15:03.213Z,1.93
2018-03-28T00:17:32.338Z,1.84
2018-03-28T00:20:01.086Z,1.81
2018-03-28T00:22:29.441Z,1.79
2018-03-28T00:24:57.748Z,1.84
2018-03-28T00:27:26.496Z,1.85
2018-03-28T00:29:54.825Z,1.88
2018-03-28T00:32:23.934Z,1.94
2018-03-28T00:34:52.252Z,2.00
2018-03-28T00:37:20.601Z,2.00
2018-03-28T00:39:48.965Z,1.88
2018-03-28T00:42:17.288Z,1.75
2018-03-28T00:44:45.648Z,1.66
2018-03-28T00:47:14.382Z,1.55
2018-03-28T00:49:42.708Z,1.35
2018-03-28T00:52:11.077Z,1.26
2018-03-28T00:54:39.461Z,1.19
2018-03-28T00:57:08.233Z,1.17
2018-03-28T00:59:36.581Z,1.15
2018-03-28T01:02:05.703Z,1.08
2018-03-28T01:04:34.029Z,1.05
2018-03-28T01:07:02.380Z,1.06
2018-03-28T01:09:31.478Z,1.05
2018-03-28T01:12:00.607Z,1.09
2018-03-28T01:14:28.927Z,1.05
2018-03-28T01:16:57.681Z,1.05
2018-03-28T01:19:26.383Z,1.03
2018-03-28T01:21:55.491Z,1.00
2018-03-28T01:24:24.209Z,0.95
2018-03-28T01:26:52.598Z,0.92
2018-03-28T01:29:20.953Z,0.95
2018-03-28T01:31:49.273Z,0.91
2018-03-28T01:34:17.629Z,0.95
2018-03-28T01:36:46.345Z,1.03
2018-03-28T01:39:14.705Z,1.08
2018-03-28T01:41:43.036Z,1.12
2018-03-28T01:44:11.408Z,1.14
2018-03-28T01:46:39.731Z,1.16
2018-03-28T01:49:08.060Z,1.10
2018-03-28T01:51:36.410Z,1.10
2018-03-28T01:54:05.177Z,1.08
2018-03-28T01:56:33.897Z,1.10
2018-03-28T01:59:02.273Z,1.15
2018-03-28T02:01:31.400Z,1.19
2018-03-28T02:03:59.757Z,1.20
2018-03-28T02:06:28.477Z,1.23
2018-03-28T02:08:57.591Z,1.25
2018-03-28T02:11:25.938Z,1.24
2018-03-28T02:13:54.289Z,1.27
2018-03-28T02:16:23.371Z,1.36
2018-03-28T02:18:52.486Z,1.39
2018-03-28T02:21:20.852Z,1.38
2018-03-28T02:23:49.927Z,1.43
2018-03-28T02:26:18.667Z,1.46
2018-03-28T02:28:46.983Z,1.50
2018-03-28T02:31:15.733Z,1.63
2018-03-28T02:33:44.489Z,1.76
2018-03-28T02:36:12.819Z,1.86
2018-03-28T02:38:41.155Z,1.93
2018-03-28T02:41:09.880Z,1.83
2018-03-28T02:43:38.228Z,1.73
2018-03-28T02:46:06.945Z,1.68
2018-03-28T02:48:35.736Z,1.70
2018-03-28T02:51:04.038Z,1.81
2018-03-28T02:53:32.793Z,2.04
2018-03-28T02:56:01.169Z,2.01
2018-03-28T02:58:29.599Z,2.14
2018-03-28T03:00:58.678Z,2.17
2018-03-28T03:03:27.820Z,2.17
2018-03-28T03:05:56.136Z,2.13
2018-03-28T03:08:24.453Z,2.04
2018-03-28T03:10:53.604Z,2.00
2018-03-28T03:13:21.930Z,1.96
2018-03-28T03:15:50.287Z,1.90
2018-03-28T03:18:19.397Z,1.80
2018-03-28T03:20:47.738Z,1.85
2018-03-28T03:23:16.148Z,1.89
2018-03-28T03:25:44.568Z,1.94
2018-03-28T03:28:12.908Z,1.92
2018-03-28T03:30:42.027Z,1.98
2018-03-28T03:33:10.322Z,2.05
2018-03-28T03:35:39.452Z,2.05
2018-03-28T03:38:07.784Z,1.96
2018-03-28T03:40:36.115Z,1.94
2018-03-28T03:43:05.230Z,1.98
2018-03-28T03:45:33.956Z,2.00
2018-03-28T03:48:02.678Z,1.99
2018-03-28T03:50:31.781Z,2.03
2018-03-28T03:53:01.276Z,2.00
2018-03-28T03:55:29.599Z,2.03
2018-03-28T03:57:57.964Z,2.06
2018-03-28T04:00:26.284Z,1.99
2018-03-28T04:02:54.616Z,2.00
2018-03-28T04:05:25.350Z,1.97
2018-03-28T04:07:53.672Z,2.13
2018-03-28T04:10:22.027Z,2.19
2018-03-28T04:12:50.356Z,2.11
2018-03-28T04:15:19.504Z,2.04
2018-03-28T04:17:48.959Z,1.97
2018-03-28T04:20:18.083Z,2.00
2018-03-28T04:22:46.396Z,2.07
2018-03-28T04:25:15.159Z,1.98
2018-03-28T04:27:44.276Z,1.88
2018-03-28T04:30:12.636Z,1.99
2018-03-28T04:32:41.334Z,2.03
2018-03-28T04:35:09.704Z,2.09
2018-03-28T04:37:38.067Z,2.10
2018-03-28T04:40:06.783Z,2.01
2018-03-28T04:42:35.098Z,1.94
2018-03-28T04:45:03.854Z,1.90
2018-03-28T04:47:32.172Z,1.99
2018-03-28T04:50:01.263Z,1.95
2018-03-28T04:52:30.399Z,1.91
2018-03-28T04:54:58.754Z,1.88
2018-03-28T04:57:27.062Z,1.90
2018-03-28T04:59:55.419Z,1.91
2018-03-28T05:02:23.763Z,1.96
2018-03-28T05:04:52.874Z,1.97
2018-03-28T05:07:21.184Z,1.88
2018-03-28T05:09:49.542Z,1.93
2018-03-28T05:12:17.838Z,2.01
2018-03-28T05:14:46.191Z,2.10
2018-03-28T05:17:14.530Z,2.04
2018-03-28T05:19:42.883Z,2.05
2018-03-28T05:22:11.207Z,2.10
2018-03-28T05:24:40.335Z,2.10
2018-03-28T05:27:09.059Z,2.06
2018-03-28T05:29:37.414Z,2.14
2018-03-28T05:32:05.743Z,2.08
2018-03-28T05:34:34.855Z,1.97
2018-03-28T05:37:03.175Z,2.02
2018-03-28T05:39:31.517Z,1.99
2018-03-28T05:41:59.849Z,1.95
2018-03-28T05:44:28.196Z,1.92
2018-03-28T05:46:57.290Z,1.95
2018-03-28T05:49:25.658Z,2.05
2018-03-28T05:51:53.967Z,2.06
2018-03-28T05:54:22.691Z,2.00
2018-03-28T05:56:51.446Z,2.10
2018-03-28T05:59:19.802Z,2.14
2018-03-28T06:01:48.369Z,2.12
2018-03-28T06:04:16.722Z,2.15
2018-03-28T06:06:45.045Z,2.26
2018-03-28T06:09:13.414Z,2.18
2018-03-28T06:11:41.730Z,2.11
2018-03-28T06:14:10.462Z,2.06
2018-03-28T06:16:39.242Z,2.08
2018-03-28T06:19:07.575Z,2.10
2018-03-28T06:21:36.325Z,2.03
2018-03-28T06:24:04.655Z,2.04
2018-03-28T06:26:33.812Z,2.14
2018-03-28T06:29:02.173Z,2.23
2018-03-28T06:31:30.566Z,2.18
2018-03-28T06:33:59.325Z,2.14
2018-03-28T06:36:27.681Z,2.29
2018-03-28T06:38:56.068Z,2.23
2018-03-28T06:41:24.384Z,2.11
2018-03-28T06:43:52.728Z,2.11
2018-03-28T06:46:21.126Z,2.26
2018-03-28T06:48:49.494Z,2.05
2018-03-28T06:51:17.858Z,2.11
2018-03-28T06:53:46.294Z,2.10
2018-03-28T06:56:15.066Z,2.07
2018-03-28T06:58:43.429Z,2.18
2018-03-28T07:01:12.206Z,2.33
2018-03-28T07:03:40.562Z,2.45
2018-03-28T07:06:09.291Z,2.57
2018-03-28T07:08:37.658Z,2.41
2018-03-28T07:11:06.090Z,2.26
2018-03-28T07:13:35.206Z,2.34
2018-03-28T07:16:03.990Z,2.43
2018-03-28T07:18:32.394Z,2.24
2018-03-28T07:21:00.732Z,2.15
2018-03-28T07:23:29.100Z,2.25
2018-03-28T07:25:58.218Z,2.30
2018-03-28T07:28:26.556Z,2.21
2018-03-28T07:30:54.948Z,2.33
2018-03-28T07:33:24.074Z,2.49
2018-03-28T07:35:52.388Z,2.46
2018-03-28T07:38:21.510Z,2.57
2018-03-28T07:40:50.262Z,2.61
2018-03-28T07:43:19.006Z,2.44
2018-03-28T07:45:47.362Z,2.60
2018-03-28T07:48:16.097Z,2.83
2018-03-28T07:50:44.858Z,2.83
2018-03-28T07:53:13.178Z,2.64
2018-03-28T07:55:41.494Z,2.82
2018-03-28T07:58:09.845Z,2.96
2018-03-28T08:00:38.586Z,2.93
2018-03-28T08:03:06.942Z,3.17
2018-03-28T08:05:36.794Z,3.08
2018-03-28T08:08:05.148Z,3.05
2018-03-28T08:10:34.244Z,3.05
2018-03-28T08:13:02.609Z,3.28
2018-03-28T08:15:31.345Z,3.42
2018-03-28T08:17:59.712Z,3.64
2018-03-28T08:20:28.027Z,3.69
2018-03-28T08:22:57.156Z,3.89
2018-03-28T08:25:25.514Z,3.56
2018-03-28T08:27:54.621Z,3.21
2018-03-28T08:30:23.744Z,3.38
2018-03-28T08:32:52.111Z,3.27
2018-03-28T08:35:21.322Z,3.24
2018-03-28T08:37:50.045Z,3.51
2018-03-28T08:40:18.364Z,3.35
2018-03-28T08:42:47.529Z,3.66
2018-03-28T08:45:15.866Z,3.81
2018-03-28T08:47:44.181Z,3.75
2018-03-28T08:50:12.532Z,3.53
2018-03-28T08:52:40.885Z,3.52
2018-03-28T08:55:09.245Z,3.65
2018-03-28T08:57:37.961Z,3.86
2018-03-28T09:00:06.326Z,4.40
2018-03-28T09:02:35.067Z,4.77
2018-03-28T09:05:03.794Z,4.88
2018-03-28T09:07:32.170Z,5.23
2018-03-28T09:10:01.274Z,5.13
2018-03-28T09:12:30.777Z,6.20
2018-03-28T09:14:59.902Z,6.32
2018-03-28T09:17:28.290Z,5.47
2018-03-28T09:19:56.629Z,6.68
2018-03-28T09:22:25.027Z,6.37
2018-03-28T09:24:53.357Z,6.13
2018-03-28T09:27:22.437Z,6.57
2018-03-28T09:29:50.801Z,6.95
2018-03-28T09:32:19.894Z,7.35
2018-03-28T09:34:48.280Z,7.96
2018-03-28T09:37:17.387Z,7.24
2018-03-28T09:39:45.691Z,6.50
2018-03-28T09:42:14.152Z,6.01
2018-03-28T09:44:43.234Z,5.48
2018-03-28T09:47:11.717Z,5.48
2018-03-28T09:49:40.861Z,5.77
2018-03-28T09:52:09.241Z,6.39
2018-03-28T09:54:37.637Z,7.02
2018-03-28T09:57:06.021Z,6.99
2018-03-28T09:59:35.175Z,7.25
2018-03-28T10:02:08.987Z,6.19
2018-03-28T10:04:42.708Z,6.94
2018-03-28T10:07:11.493Z,6.98
2018-03-28T10:09:39.848Z,6.93
2018-03-28T10:12:08.257Z,6.37
2018-03-28T10:14:36.587Z,5.80
2018-03-28T10:17:05.709Z,6.07
2018-03-28T10:19:34.849Z,5.72
2018-03-28T10:22:03.631Z,5.39
2018-03-28T10:24:32.763Z,5.56
2018-03-28T10:27:01.506Z,6.04
2018-03-28T10:29:29.828Z,5.69
2018-03-28T10:31:59.073Z,5.91
2018-03-28T10:34:27.412Z,5.69
2018-03-28T10:36:56.501Z,5.83
2018-03-28T10:39:25.615Z,5.81
2018-03-28T10:41:53.970Z,5.35
2018-03-28T10:44:22.334Z,6.16
2018-03-28T10:46:51.249Z,5.83
2018-03-28T10:49:20.495Z,5.99
2018-03-28T10:51:48.860Z,5.55
2018-03-28T10:54:17.179Z,6.10
2018-03-28T10:56:45.532Z,6.67
2018-03-28T10:59:15.037Z,6.93
2018-03-28T11:01:43.363Z,6.11
2018-03-28T11:04:12.485Z,5.74
2018-03-28T11:06:40.871Z,5.58
2018-03-28T11:09:10.392Z,5.78
2018-03-28T11:11:38.748Z,6.06
2018-03-28T11:14:07.062Z,5.47
2018-03-28T11:16:35.827Z,5.32
2018-03-28T11:19:04.576Z,5.22
2018-03-28T11:21:32.937Z,5.37
2018-03-28T11:24:01.999Z,5.33
2018-03-28T11:26:30.322Z,4.50
2018-03-28T11:28:58.686Z,4.44
2018-03-28T11:31:27.809Z,4.56
2018-03-28T11:33:56.218Z,4.17
2018-03-28T11:36:24.592Z,4.65
2018-03-28T11:38:53.354Z,4.36
2018-03-28T11:41:21.752Z,4.16
2018-03-28T11:43:50.844Z,4.05
2018-03-28T11:46:21.194Z,4.06
2018-03-28T11:48:49.592Z,4.16
2018-03-28T11:51:17.985Z,4.09
2018-03-28T11:53:46.340Z,3.73
2018-03-28T11:56:16.230Z,3.69
2018-03-28T11:58:44.596Z,3.57
2018-03-28T12:01:13.030Z,3.83
2018-03-28T12:03:41.837Z,3.89
2018-03-28T12:06:10.604Z,4.54
2018-03-28T12:08:40.454Z,4.15
2018-03-28T12:11:08.828Z,3.93
2018-03-28T12:13:37.155Z,3.43
2018-03-28T12:16:06.360Z,3.37
2018-03-28T12:18:34.757Z,3.35
2018-03-28T12:21:04.583Z,3.30
2018-03-28T12:23:32.930Z,3.29
2018-03-28T12:26:01.668Z,3.14
2018-03-28T12:28:31.167Z,3.09
2018-03-28T12:30:59.511Z,3.08
2018-03-28T12:33:29.012Z,3.07
2018-03-28T12:35:57.383Z,3.30
2018-03-28T12:38:26.139Z,3.20
2018-03-28T12:40:54.503Z,3.21
2018-03-28T12:43:22.885Z,3.07
2018-03-28T12:45:52.017Z,3.03
2018-03-28T12:48:21.298Z,2.99
2018-03-28T12:50:49.619Z,3.12
2018-03-28T12:53:18.751Z,3.36
2018-03-28T12:55:48.181Z,3.28
2018-03-28T12:58:16.567Z,3.27
2018-03-28T13:00:45.311Z,3.24
2018-03-28T13:03:14.460Z,3.32
2018-03-28T13:06:09.163Z,3.12
2018-03-28T13:08:38.335Z,3.32
2018-03-28T13:11:07.118Z,3.37
2018-03-28T13:13:35.871Z,3.32
2018-03-28T13:16:04.234Z,3.43
2018-03-28T13:18:32.591Z,3.39
2018-03-28T13:21:01.717Z,3.26
2018-03-28T13:23:30.074Z,3.32
2018-03-28T13:25:58.419Z,3.21
2018-03-28T13:28:26.777Z,3.34
2018-03-28T13:30:55.555Z,3.39
2018-03-28T13:33:23.931Z,3.30
2018-03-28T13:35:52.255Z,3.50
2018-03-28T13:38:21.733Z,3.44
2018-03-28T13:40:50.083Z,3.58
2018-03-28T13:43:18.835Z,3.60
2018-03-28T13:45:47.184Z,3.73
2018-03-28T13:48:15.559Z,3.68
2018-03-28T13:50:43.891Z,3.92
2018-03-28T13:53:12.291Z,3.60
2018-03-28T13:55:40.667Z,3.38
2018-03-28T13:58:09.001Z,3.46
2018-03-28T14:00:37.334Z,3.50
2018-03-28T14:03:05.687Z,3.59
2018-03-28T14:05:34.055Z,3.51
2018-03-28T14:08:02.378Z,3.46
2018-03-28T14:10:30.741Z,3.85
2018-03-28T14:12:59.483Z,3.64
2018-03-28T14:15:27.857Z,3.63
2018-03-28T14:17:56.963Z,3.56
2018-03-28T14:20:25.325Z,3.67
2018-03-28T14:22:54.467Z,3.57
2018-03-28T14:25:22.809Z,3.59
2018-03-28T14:27:51.918Z,3.41
2018-03-28T14:30:21.142Z,3.57
2018-03-28T14:32:49.511Z,3.43
2018-03-28T14:35:19.375Z,3.56
2018-03-28T14:37:48.522Z,3.46
2018-03-28T14:40:17.988Z,3.47
2018-03-28T14:42:54.593Z,3.70
2018-03-28T14:45:16.620Z,3.77
2018-03-28T14:47:45.050Z,3.82
2018-03-28T14:50:14.190Z,3.44
2018-03-28T14:52:42.548Z,3.63
2018-03-28T14:55:10.931Z,3.74
2018-03-28T14:57:39.288Z,3.64
2018-03-28T15:00:08.468Z,3.70
2018-03-28T15:02:37.254Z,3.79
2018-03-28T15:05:05.643Z,3.61
2018-03-28T15:07:34.738Z,3.61
2018-03-28T15:10:03.927Z,3.64
2018-03-28T15:12:33.052Z,3.78
2018-03-28T15:15:01.761Z,3.72
2018-03-28T15:17:30.114Z,3.75
2018-03-28T15:19:59.223Z,3.76
2018-03-28T15:22:27.970Z,3.80
2018-03-28T15:24:56.786Z,3.76
2018-03-28T15:27:25.157Z,3.72
2018-03-28T15:29:54.279Z,3.77
2018-03-28T15:32:22.652Z,3.90
2018-03-28T15:34:50.977Z,4.04
2018-03-28T15:37:19.344Z,3.86
2018-03-28T15:39:47.730Z,3.64
2018-03-28T15:42:16.788Z,3.73
2018-03-28T15:44:45.124Z,3.74
2018-03-28T15:47:14.298Z,4.09
2018-03-28T15:49:42.644Z,3.85
2018-03-28T15:52:11.770Z,3.82
2018-03-28T15:54:40.146Z,3.85
2018-03-28T15:57:08.482Z,3.91
2018-03-28T15:59:37.598Z,4.03
2018-03-28T16:02:06.377Z,3.88
2018-03-28T16:04:34.734Z,4.01
2018-03-28T16:07:03.098Z,3.75
2018-03-28T16:09:32.194Z,3.71
2018-03-28T16:12:00.949Z,3.75
2018-03-28T16:14:30.455Z,3.60
2018-03-28T16:16:58.797Z,3.54
2018-03-28T16:19:27.138Z,3.58
2018-03-28T16:21:55.929Z,3.54
2018-03-28T16:24:25.020Z,3.55
2018-03-28T16:26:54.890Z,3.62
2018-03-28T16:29:23.240Z,3.48
2018-03-28T16:31:51.954Z,3.49
2018-03-28T16:34:20.284Z,3.47
2018-03-28T16:36:49.686Z,3.65
2018-03-28T16:39:18.481Z,3.54
2018-03-28T16:41:46.841Z,3.52
2018-03-28T16:44:16.038Z,3.60
2018-03-28T16:46:45.509Z,3.65
2018-03-28T16:49:14.330Z,3.54
2018-03-28T16:51:43.460Z,3.55
2018-03-28T16:54:11.812Z,3.60
2018-03-28T16:56:42.066Z,3.71
2018-03-28T16:59:11.821Z,3.70
2018-03-28T17:01:42.413Z,3.75
2018-03-28T17:04:11.880Z,3.62
2018-03-28T17:06:40.252Z,3.76
2018-03-28T17:09:09.228Z,3.71
2018-03-28T17:11:40.713Z,3.68
2018-03-28T17:14:29.085Z,3.65
2018-03-28T17:16:58.349Z,3.24
2018-03-28T17:19:27.268Z,3.71
2018-03-28T17:21:56.893Z,3.69
2018-03-28T17:24:29.941Z,3.32
2018-03-28T17:27:04.033Z,3.62
2018-03-28T17:29:34.201Z,3.60
2018-03-28T17:32:02.727Z,3.59
2018-03-28T17:34:33.038Z,3.60
2018-03-28T17:37:03.383Z,3.56
2018-03-28T17:39:34.325Z,3.45
2018-03-28T17:42:04.439Z,3.48
2018-03-28T17:44:36.111Z,3.52
2018-03-28T17:47:06.169Z,3.52
2018-03-28T17:49:36.713Z,2.89
2018-03-28T17:52:05.067Z,3.49
2018-03-28T17:54:34.233Z,3.51
2018-03-28T17:57:03.090Z,3.64
2018-03-28T17:59:31.883Z,3.64
2018-03-28T18:02:02.187Z,3.56
2018-03-28T18:04:32.482Z,3.58
2018-03-28T18:07:01.917Z,3.69
2018-03-28T18:09:30.341Z,3.58
2018-03-28T18:12:00.208Z,3.62
2018-03-28T18:14:29.385Z,3.72
2018-03-28T18:16:57.804Z,3.56
2018-03-28T18:19:26.926Z,3.65
2018-03-28T18:21:56.059Z,3.52
2018-03-28T18:24:24.793Z,3.51
2018-03-28T18:26:53.556Z,3.55
2018-03-28T18:29:21.893Z,3.58
2018-03-28T18:31:50.687Z,3.63
2018-03-28T18:34:19.444Z,3.65
2018-03-28T18:36:47.833Z,3.69
2018-03-28T18:39:16.936Z,3.63
2018-03-28T18:41:45.360Z,3.73
2018-03-28T18:44:13.690Z,3.66
2018-03-28T18:46:42.074Z,3.66
2018-03-28T18:49:10.420Z,3.66
2018-03-28T18:51:40.319Z,3.72
2018-03-28T18:54:09.054Z,3.75
2018-03-28T18:56:37.894Z,3.84
2018-03-28T18:59:07.040Z,3.81
2018-03-28T19:01:36.129Z,3.83
2018-03-28T19:04:05.761Z,3.93
2018-03-28T19:06:35.250Z,3.94
2018-03-28T19:09:03.667Z,3.80
2018-03-28T19:11:32.020Z,3.93
2018-03-28T19:14:00.336Z,4.04
2018-03-28T19:16:29.152Z,3.91
2018-03-28T19:18:57.884Z,4.07
2018-03-28T19:21:26.285Z,3.97
2018-03-28T19:23:55.020Z,4.05
2018-03-28T19:26:24.099Z,3.99
2018-03-28T19:28:52.503Z,4.04
2018-03-28T19:31:22.463Z,3.98
2018-03-28T19:33:50.914Z,4.07
2018-03-28T19:36:20.113Z,4.06
2018-03-28T19:38:48.493Z,3.99
2018-03-28T19:41:17.372Z,4.09
2018-03-28T19:43:45.717Z,4.11
2018-03-28T19:46:14.089Z,4.09
2018-03-28T19:48:42.530Z,4.10
2018-03-28T19:51:10.858Z,4.14
2018-03-28T19:53:39.245Z,4.20
2018-03-28T19:56:08.021Z,4.20
2018-03-28T19:58:37.074Z,4.15
2018-03-28T20:01:05.440Z,4.22
2018-03-28T20:03:33.788Z,4.15
2018-03-28T20:06:02.151Z,4.19
2018-03-28T20:08:30.960Z,4.17
2018-03-28T20:10:59.328Z,4.19
2018-03-28T20:13:28.464Z,4.18
2018-03-28T20:15:57.491Z,4.23
2018-03-28T20:18:25.848Z,4.32
2018-03-28T20:20:54.620Z,4.36
2018-03-28T20:23:22.959Z,4.49
2018-03-28T20:25:51.283Z,4.37
2018-03-28T20:28:19.712Z,4.40
2018-03-28T20:30:48.819Z,4.38
2018-03-28T20:33:18.140Z,4.39
2018-03-28T20:35:46.488Z,4.43
2018-03-28T20:38:16.223Z,4.41
2018-03-28T20:40:44.552Z,4.39
2018-03-28T20:43:12.956Z,4.40
2018-03-28T20:45:41.290Z,4.59
2018-03-28T20:48:11.000Z,4.68
2018-03-28T20:50:40.148Z,4.63
2018-03-28T20:53:09.257Z,4.67
2018-03-28T20:55:37.599Z,4.61
2018-03-28T20:58:06.356Z,4.62
2018-03-28T21:00:36.311Z,4.69
2018-03-28T21:03:06.274Z,4.72
2018-03-28T21:05:34.631Z,4.66
2018-03-28T21:08:02.944Z,4.77
2018-03-28T21:10:32.130Z,4.88
2018-03-28T21:13:00.476Z,4.82
2018-03-28T21:15:29.243Z,4.77
2018-03-28T21:17:57.970Z,4.83
2018-03-28T21:20:26.315Z,4.85
2018-03-28T21:22:55.068Z,4.88
2018-03-28T21:25:23.779Z,4.85
2018-03-28T21:27:52.137Z,4.94
2018-03-28T21:30:20.856Z,4.95
2018-03-28T21:32:49.194Z,4.91
2018-03-28T21:35:18.303Z,4.95
2018-03-28T21:37:47.400Z,5.01
2018-03-28T21:40:15.763Z,4.96
2018-03-28T21:42:44.093Z,4.92
2018-03-28T21:45:12.459Z,4.94
2018-03-28T21:47:40.774Z,4.98
2018-03-28T21:50:09.127Z,5.01
2018-03-28T21:52:38.196Z,4.96
2018-03-28T21:55:06.546Z,5.02
2018-03-28T21:57:34.879Z,5.04
2018-03-28T22:00:03.590Z,4.98
2018-03-28T22:02:32.732Z,5.03
2018-03-28T22:05:01.086Z,5.05
2018-03-28T22:07:29.485Z,5.02
2018-03-28T22:09:58.529Z,5.04
2018-03-28T22:12:26.883Z,5.04
2018-03-28T22:14:55.233Z,5.10
2018-03-28T22:17:23.574Z,5.09
2018-03-28T22:19:52.650Z,5.14
2018-03-28T22:22:21.033Z,5.07
2018-03-28T22:24:49.359Z,5.18
2018-03-28T22:27:17.715Z,5.27
2018-03-28T22:29:46.795Z,5.24
2018-03-28T22:32:15.930Z,5.13
2018-03-28T22:34:44.258Z,5.16
2018-03-28T22:37:12.564Z,5.17
2018-03-28T22:39:40.916Z,5.21
2018-03-28T22:42:10.055Z,5.20
2018-03-28T22:44:38.368Z,5.18
2018-03-28T22:47:06.681Z,5.17
2018-03-28T22:49:35.786Z,5.22
2018-03-28T22:52:04.102Z,5.30
2018-03-28T22:54:32.442Z,5.30
2018-03-28T22:57:00.795Z,5.33
2018-03-28T22:59:29.505Z,5.38
2018-03-28T23:01:58.695Z,5.41
2018-03-28T23:04:27.826Z,5.39
2018-03-28T23:06:56.135Z,5.49
2018-03-28T23:09:24.461Z,5.43
2018-03-28T23:11:52.839Z,5.39
2018-03-28T23:14:21.154Z,5.42
2018-03-28T23:16:49.477Z,5.34
2018-03-28T23:19:18.597Z,5.36
2018-03-28T23:21:46.942Z,5.43
2018-03-28T23:24:16.034Z,5.45
2018-03-28T23:26:45.154Z,5.43
2018-03-28T23:29:13.471Z,5.45
2018-03-28T23:31:42.808Z,5.49
2018-03-28T23:34:11.159Z,5.46
2018-03-28T23:36:39.475Z,5.42
2018-03-28T23:39:07.828Z,5.41
2018-03-28T23:41:36.909Z,5.41
2018-03-28T23:44:05.273Z,5.46
2018-03-28T23:46:33.584Z,5.49
2018-03-28T23:49:02.685Z,5.52
2018-03-28T23:51:31.415Z,5.49
2018-03-28T23:53:59.806Z,5.49
2018-03-28T23:56:28.124Z,5.53
2018-03-28T23:58:56.874Z,5.59
